Time;durP1;ratioP1;P1;durP2;ratioP2;P2;SDS_P1;SDS_P2;PMS_P1;PMS_P2;Temp;Humidity;BMP_temperature;BMP_pressure;BME280_temperature;BME280_humidity;BME280_pressure;Samples;Min_cycle;Max_cycle;Signal;HPM_P1;HPM_P2
2022/06/04 00:01:34;;;;;;;3.60;3.00;;;19.20;99.90;;;;;;4973478;28;20027;-49
2022/06/04 00:03:59;;;;;;;3.67;3.38;;;19.20;99.90;;;;;;4972378;28;20031;-49
2022/06/04 00:06:25;;;;;;;3.58;3.10;;;19.20;99.90;;;;;;4972457;28;20031;-50
2022/06/04 00:08:50;;;;;;;7.90;3.47;;;19.20;99.90;;;;;;4974465;28;20026;-49
2022/06/04 00:16:45;;;;;;;5.10;3.47;;;19.10;99.90;;;;;;4977020;28;20113;-49
2022/06/04 00:19:11;;;;;;;6.57;3.58;;;19.00;99.90;;;;;;4975646;28;20455;-48
2022/06/04 00:21:38;;;;;;;5.65;3.40;;;19.00;99.90;;;;;;4975575;28;20462;-49
2022/06/04 00:24:05;;;;;;;7.72;3.53;;;19.00;99.90;;;;;;4976775;28;20022;-49
2022/06/04 00:26:31;;;;;;;7.53;3.22;;;19.00;99.90;;;;;;4976516;28;20385;-53
2022/06/04 00:28:56;;;;;;;5.38;3.03;;;18.90;99.90;;;;;;4975480;28;20023;-49
2022/06/04 00:31:22;;;;;;;5.47;3.10;;;18.80;99.90;;;;;;4975551;28;20027;-50
2022/06/04 00:33:48;;;;;;;6.60;3.65;;;18.80;99.90;;;;;;4977050;28;20074;-49
2022/06/04 00:36:14;;;;;;;8.77;3.92;;;18.80;99.90;;;;;;4976605;28;20015;-51
2022/06/04 00:38:40;;;;;;;6.95;3.92;;;18.70;99.90;;;;;;4975652;28;20034;-49
2022/06/04 00:41:14;;;;;;;3.53;3.22;;;18.60;99.90;;;;;;4976538;28;20035;-49
2022/06/04 00:44:10;;;;;;;5.05;3.40;;;18.40;99.90;;;;;;4976349;28;20034;-52
2022/06/04 00:46:42;;;;;;;7.78;4.38;;;18.30;99.90;;;;;;4976365;28;20053;-49
2022/06/04 00:49:16;;;;;;;5.68;3.58;;;18.00;99.90;;;;;;4976647;28;20026;-49
2022/06/04 00:51:44;;;;;;;5.70;3.60;;;18.00;99.90;;;;;;4976313;28;20029;-49
2022/06/04 00:54:10;;;;;;;5.70;4.00;;;18.00;99.90;;;;;;4975118;28;20063;-50
2022/06/04 00:56:45;;;;;;;5.50;3.95;;;18.00;99.90;;;;;;4974997;28;20019;-49
2022/06/04 00:59:32;;;;;;;5.13;3.92;;;18.00;99.90;;;;;;4974952;28;20018;-49
2022/06/04 01:02:24;;;;;;;5.78;4.47;;;18.00;99.90;;;;;;4976324;28;20153;-51
2022/06/04 01:05:00;;;;;;;8.55;4.60;;;17.90;99.90;;;;;;4974855;28;20035;-52
2022/06/04 01:07:47;;;;;;;6.38;4.15;;;17.90;99.90;;;;;;4974794;28;20084;-50
2022/06/04 01:10:37;;;;;;;4.55;3.67;;;17.90;99.90;;;;;;4974750;28;20027;-49
2022/06/04 01:13:58;;;;;;;7.03;3.70;;;17.80;99.90;;;;;;4975221;28;20097;-51
2022/06/04 01:16:37;;;;;;;7.90;4.15;;;17.80;99.90;;;;;;4975949;28;20027;-49
2022/06/04 01:19:15;;;;;;;6.20;3.92;;;17.80;99.90;;;;;;4974269;28;20126;-51
2022/06/04 01:22:02;;;;;;;7.32;3.70;;;17.70;99.90;;;;;;4975705;28;20042;-50
2022/06/04 01:24:31;;;;;;;6.00;3.22;;;17.70;99.90;;;;;;4975233;28;20033;-51
2022/06/04 01:27:03;;;;;;;7.70;3.50;;;17.70;99.90;;;;;;4975947;28;20030;-52
2022/06/04 01:29:51;;;;;;;7.60;3.65;;;17.60;99.90;;;;;;4974544;28;20504;-54
2022/06/04 01:32:22;;;;;;;7.20;3.75;;;17.50;99.90;;;;;;4975962;28;20035;-50
2022/06/04 01:35:09;;;;;;;10.20;5.60;;;17.50;99.90;;;;;;4974442;28;20018;-53
2022/06/04 01:37:49;;;;;;;5.75;4.22;;;17.30;99.90;;;;;;4975082;28;20038;-52
2022/06/04 01:43:09;;;;;;;5.30;3.60;;;17.20;99.90;;;;;;4975756;28;20045;-55
2022/06/04 01:45:36;;;;;;;9.93;4.20;;;17.20;99.90;;;;;;4974179;28;20027;-53
2022/06/04 01:48:06;;;;;;;9.73;4.53;;;17.10;99.90;;;;;;4974270;28;20085;-52
2022/06/04 01:50:56;;;;;;;5.25;4.18;;;17.00;99.90;;;;;;4975194;28;20034;-52
2022/06/04 01:53:30;;;;;;;4.38;3.97;;;17.10;99.90;;;;;;4974090;28;20029;-52
2022/06/04 01:55:59;;;;;;;11.07;4.00;;;17.00;99.90;;;;;;4974644;28;20038;-50
2022/06/04 01:58:30;;;;;;;9.50;4.35;;;16.90;99.90;;;;;;4975126;28;20026;-54
2022/06/04 02:01:22;;;;;;;3.33;3.03;;;16.80;99.90;;;;;;4975177;28;20109;-51
2022/06/04 02:03:51;;;;;;;;;;;16.80;99.90;;;;;;4975028;28;20035;-53
2022/06/04 02:06:33;;;;;;;9.70;3.67;;;16.80;99.90;;;;;;4975089;28;19906;-54
2022/06/04 02:09:01;;;;;;;;;;;16.80;99.90;;;;;;4975470;28;20466;-51
2022/06/04 02:11:26;;;;;;;9.25;4.32;;;16.80;99.90;;;;;;4974797;28;19910;-53
2022/06/04 02:14:01;;;;;;;6.22;3.92;;;16.80;99.90;;;;;;4973601;28;20023;-52
2022/06/04 02:16:49;;;;;;;8.65;3.75;;;16.80;99.90;;;;;;4973565;28;20022;-55
2022/06/04 02:19:15;;;;;;;10.20;4.13;;;16.80;99.90;;;;;;4973463;28;20026;-52
2022/06/04 02:21:41;;;;;;;10.50;4.45;;;16.80;99.90;;;;;;4974621;28;20022;-51
2022/06/04 02:24:08;;;;;;;10.68;4.10;;;16.80;99.90;;;;;;4974952;28;20029;-51
2022/06/04 02:26:35;;;;;;;7.30;4.20;;;16.80;99.90;;;;;;4973222;28;20081;-53
2022/06/04 02:29:01;;;;;;;7.20;4.55;;;16.80;99.90;;;;;;4973352;28;20031;-50
2022/06/04 02:31:48;;;;;;;9.10;3.60;;;16.90;99.90;;;;;;4973089;28;20031;-50
2022/06/04 02:34:56;;;;;;;9.95;4.35;;;16.90;99.90;;;;;;4974087;28;20026;-51
2022/06/04 02:37:27;;;;;;;7.28;4.25;;;16.90;99.90;;;;;;4973553;28;20026;-50
2022/06/04 02:40:04;;;;;;;13.43;4.70;;;16.90;99.90;;;;;;4974412;28;20019;-55
2022/06/04 02:42:43;;;;;;;7.00;3.83;;;16.80;99.90;;;;;;4974585;28;20500;-50
2022/06/04 02:45:14;;;;;;;14.18;4.35;;;16.90;99.90;;;;;;4973113;28;20034;-51
2022/06/04 02:47:46;;;;;;;7.88;4.30;;;16.80;99.90;;;;;;4973963;28;20027;-51
2022/06/04 02:50:27;;;;;;;14.63;4.18;;;16.80;99.90;;;;;;4974503;28;20023;-53
2022/06/04 02:52:55;;;;;;;12.98;3.90;;;16.80;99.90;;;;;;4973357;28;20481;-53
2022/06/04 02:55:26;;;;;;;7.57;3.95;;;16.70;99.90;;;;;;4974252;28;20023;-49
2022/06/04 02:57:56;;;;;;;10.00;3.70;;;16.70;99.90;;;;;;4973120;28;20035;-52
2022/06/04 03:00:25;;;;;;;10.80;4.28;;;16.70;99.90;;;;;;4974246;28;20030;-49
2022/06/04 03:02:51;;;;;;;12.70;4.30;;;16.60;99.90;;;;;;4974158;28;20027;-51
2022/06/04 03:05:21;;;;;;;9.38;3.95;;;16.60;99.90;;;;;;4974390;28;20030;-55
2022/06/04 03:07:49;;;;;;;11.15;4.25;;;16.50;99.90;;;;;;4973170;28;20027;-50
2022/06/04 03:10:20;;;;;;;9.30;3.60;;;16.60;99.90;;;;;;4974334;28;20089;-50
2022/06/04 03:12:46;;;;;;;9.68;4.65;;;16.60;99.90;;;;;;4972923;28;20025;-55
2022/06/04 03:15:13;;;;;;;7.72;3.65;;;16.50;99.90;;;;;;4973118;28;20023;-52
2022/06/04 03:17:44;;;;;;;11.25;4.35;;;16.50;99.90;;;;;;4973482;28;20129;-54
2022/06/04 03:20:12;;;;;;;9.38;4.60;;;16.40;99.90;;;;;;4974130;28;20026;-54
2022/06/04 03:22:38;;;;;;;11.38;4.03;;;16.40;99.90;;;;;;4972571;28;20034;-54
2022/06/04 03:25:04;;;;;;;6.68;4.28;;;16.40;99.90;;;;;;4973245;28;20026;-55
2022/06/04 03:27:30;;;;;;;11.88;4.30;;;16.50;99.90;;;;;;4973655;28;20114;-55
2022/06/04 03:29:56;;;;;;;6.53;3.80;;;16.50;99.90;;;;;;4972801;28;20073;-54
2022/06/04 03:32:21;;;;;;;8.23;4.60;;;16.60;99.90;;;;;;4974120;28;20023;-52
2022/06/04 03:34:47;;;;;;;5.88;4.30;;;16.70;99.90;;;;;;4972584;28;20019;-54
2022/06/04 03:37:12;;;;;;;6.75;4.63;;;16.60;99.90;;;;;;4973784;28;20034;-51
2022/06/04 03:39:38;;;;;;;12.00;5.22;;;16.60;99.90;;;;;;4972500;28;20048;-54
2022/06/04 03:42:04;;;;;;;11.98;4.85;;;16.60;99.90;;;;;;4972802;28;20046;-55
2022/06/04 03:44:30;;;;;;;7.53;4.03;;;16.60;99.90;;;;;;4977655;28;20039;-53
2022/06/04 03:46:55;;;;;;;10.43;5.53;;;16.70;99.90;;;;;;4977545;28;20054;-53
2022/06/04 03:49:21;;;;;;;11.60;5.05;;;16.80;99.90;;;;;;4976198;28;20034;-55
2022/06/04 03:51:47;;;;;;;9.43;5.43;;;16.80;99.90;;;;;;4976036;28;20030;-50
2022/06/04 03:54:13;;;;;;;12.60;5.07;;;16.80;99.90;;;;;;4977329;28;20540;-53
2022/06/04 04:00:00;;;;;;;7.18;5.38;;;16.90;99.90;;;;;;4996992;28;20118;-50
2022/06/04 04:02:26;;;;;;;8.25;5.30;;;17.00;99.90;;;;;;4995466;28;20113;-54
2022/06/04 04:04:52;;;;;;;12.45;5.38;;;17.00;99.90;;;;;;4995483;28;20060;-52
2022/06/04 04:07:17;;;;;;;9.20;4.70;;;17.10;99.90;;;;;;4995863;28;20038;-53
2022/06/04 04:09:43;;;;;;;8.32;4.70;;;17.20;99.90;;;;;;4995252;28;20022;-53
2022/06/04 04:12:08;;;;;;;6.68;4.30;;;17.30;99.90;;;;;;4980796;28;20027;-51
2022/06/04 04:14:34;;;;;;;8.07;4.35;;;17.50;99.90;;;;;;4976092;28;20030;-51
2022/06/04 04:17:01;;;;;;;11.52;5.00;;;17.80;99.90;;;;;;4976354;28;20031;-51
2022/06/04 04:19:29;;;;;;;7.53;4.65;;;17.90;99.90;;;;;;4992010;28;20031;-50
2022/06/04 04:21:55;;;;;;;5.43;3.50;;;18.00;99.90;;;;;;4976881;28;20038;-51
2022/06/04 04:24:21;;;;;;;5.10;4.10;;;18.20;99.90;;;;;;4991861;28;20031;-52
2022/06/04 04:26:47;;;;;;;7.28;4.13;;;18.30;99.90;;;;;;4991820;28;20027;-51
2022/06/04 04:29:12;;;;;;;10.05;4.43;;;18.50;99.90;;;;;;4991737;28;20026;-51
2022/06/04 04:31:38;;;;;;;8.43;4.70;;;18.70;99.90;;;;;;4991629;28;20030;-49
2022/06/04 04:34:04;;;;;;;7.22;4.68;;;18.60;99.90;;;;;;4977318;28;20116;-50
2022/06/04 04:36:30;;;;;;;8.25;4.47;;;18.50;99.90;;;;;;4977051;28;20022;-49
2022/06/04 04:38:56;;;;;;;10.10;4.40;;;18.40;99.90;;;;;;4977420;28;20034;-49
2022/06/04 04:41:23;;;;;;;7.97;3.88;;;18.30;99.90;;;;;;4976851;28;20035;-51
2022/06/04 04:43:49;;;;;;;5.53;3.17;;;18.30;99.90;;;;;;4978680;28;20042;-51
2022/06/04 04:46:16;;;;;;;6.47;4.13;;;18.50;99.90;;;;;;4996238;28;20034;-49
2022/06/04 04:48:44;;;;;;;10.82;5.45;;;18.60;99.90;;;;;;4995226;28;20038;-49
2022/06/04 04:51:19;;;;;;;6.50;3.40;;;18.70;99.90;;;;;;4995084;28;20097;-49
2022/06/04 04:53:47;;;;;;;7.80;4.88;;;18.90;99.90;;;;;;4995870;28;20429;-49
2022/06/04 04:56:17;;;;;;;9.93;4.55;;;19.10;99.90;;;;;;4994912;28;20023;-50
2022/06/04 04:58:43;;;;;;;8.55;5.15;;;19.30;99.90;;;;;;4994557;28;20121;-49
2022/06/04 05:01:24;;;;;;;9.60;5.13;;;19.40;99.90;;;;;;4995922;28;20062;-51
2022/06/04 05:03:50;;;;;;;7.03;5.32;;;19.30;99.90;;;;;;4995092;28;20468;-49
2022/06/04 05:06:17;;;;;;;9.55;5.80;;;19.40;99.90;;;;;;4996277;28;20034;-49
2022/06/04 05:08:44;;;;;;;6.70;5.25;;;19.50;99.90;;;;;;4994664;28;20030;-51
2022/06/04 05:11:17;;;;;;;7.30;5.53;;;19.70;99.90;;;;;;4995359;28;20027;-49
2022/06/04 05:13:43;;;;;;;6.55;5.50;;;19.90;99.90;;;;;;4994605;28;20077;-51
2022/06/04 05:16:09;;;;;;;7.45;5.20;;;20.00;99.90;;;;;;4994562;28;20022;-49
2022/06/04 05:18:35;;;;;;;6.28;5.60;;;20.10;99.90;;;;;;4995094;28;20022;-51
2022/06/04 05:21:11;;;;;;;9.23;5.47;;;20.20;99.90;;;;;;4995373;28;20053;-50
2022/06/04 05:23:38;;;;;;;5.25;4.85;;;20.30;99.90;;;;;;4995779;28;20489;-51
2022/06/04 05:26:05;;;;;;;5.68;4.97;;;20.40;99.90;;;;;;4994663;28;20027;-49
2022/06/04 05:28:30;;;;;;;5.97;5.35;;;20.50;99.90;;;;;;4994541;28;20027;-50
2022/06/04 05:30:56;;;;;;;6.28;5.45;;;20.60;99.90;;;;;;4995483;28;20041;-52
2022/06/04 05:33:21;;;;;;;6.28;5.55;;;20.70;99.90;;;;;;4994171;28;20026;-49
2022/06/04 05:35:47;;;;;;;6.00;5.40;;;20.80;99.90;;;;;;4995248;28;20050;-49
2022/06/04 05:38:13;;;;;;;6.45;5.20;;;21.10;99.90;;;;;;4995236;28;20018;-48
2022/06/04 05:40:38;;;;;;;5.85;5.22;;;21.30;99.90;;;;;;4995190;28;20384;-50
2022/06/04 05:43:04;;;;;;;6.65;4.50;;;21.60;99.90;;;;;;4994031;28;20081;-49
2022/06/04 05:45:30;;;;;;;6.72;5.13;;;22.00;99.90;;;;;;4986674;28;20026;-47
2022/06/04 05:47:55;;;;;;;5.15;3.75;;;22.40;99.90;;;;;;4974709;28;20019;-49
2022/06/04 05:50:21;;;;;;;5.97;4.60;;;22.90;99.90;;;;;;4974684;28;20105;-48
2022/06/04 05:52:46;;;;;;;4.55;4.18;;;23.40;99.90;;;;;;4975764;28;20186;-49
2022/06/04 05:55:12;;;;;;;6.15;4.63;;;23.80;99.90;;;;;;4976443;28;20023;-47
2022/06/04 05:57:38;;;;;;;7.18;4.05;;;24.20;99.90;;;;;;4976118;28;20030;-53
2022/06/04 06:00:08;;;;;;;4.35;3.95;;;24.50;99.90;;;;;;4975833;28;20090;-47
2022/06/04 06:02:35;;;;;;;6.70;3.85;;;24.90;99.90;;;;;;4975598;28;20018;-49
2022/06/04 06:05:01;;;;;;;6.75;4.35;;;24.90;99.90;;;;;;4987926;28;20030;-47
2022/06/04 06:07:26;;;;;;;5.03;4.40;;;24.70;99.90;;;;;;4993422;28;20027;-52
2022/06/04 06:09:52;;;;;;;6.28;4.10;;;24.50;99.90;;;;;;4993404;28;20033;-49
2022/06/04 06:12:18;;;;;;;5.82;3.75;;;24.30;99.90;;;;;;4993438;28;20519;-48
2022/06/04 06:14:43;;;;;;;5.70;4.03;;;24.10;99.90;;;;;;4993317;28;20022;-50
2022/06/04 06:17:09;;;;;;;6.22;3.83;;;24.00;99.90;;;;;;4994583;28;20027;-53
2022/06/04 06:19:35;;;;;;;4.10;3.70;;;24.00;99.90;;;;;;4994429;28;20022;-52
2022/06/04 06:22:00;;;;;;;3.42;3.13;;;23.90;99.90;;;;;;4993273;28;20030;-51
2022/06/04 06:24:26;;;;;;;4.07;3.65;;;23.90;99.90;;;;;;4992960;28;20030;-48
2022/06/04 06:26:54;;;;;;;5.20;3.72;;;23.80;99.90;;;;;;4993324;28;20370;-50
2022/06/04 06:29:26;;;;;;;7.22;3.90;;;23.70;99.90;;;;;;4994825;28;20134;-50
2022/06/04 06:31:53;;;;;;;4.65;3.60;;;23.80;99.90;;;;;;4993487;28;20022;-55
2022/06/04 06:34:37;;;;;;;3.53;3.13;;;23.80;99.90;;;;;;4994346;28;20093;-53
2022/06/04 06:37:03;;;;;;;5.75;4.00;;;23.70;99.90;;;;;;4993253;28;20121;-57
2022/06/04 06:39:29;;;;;;;4.25;3.20;;;23.70;99.90;;;;;;4993102;28;20469;-54
2022/06/04 06:41:54;;;;;;;4.07;3.72;;;23.40;99.90;;;;;;4994513;28;20066;-58
2022/06/04 06:44:22;;;;;;;3.80;3.50;;;23.10;99.90;;;;;;4993469;28;20038;-56
2022/06/04 06:46:48;;;;;;;3.83;3.30;;;23.10;99.90;;;;;;4992940;28;20116;-54
2022/06/04 06:49:26;;;;;;;5.43;3.70;;;23.20;99.90;;;;;;4992934;28;20078;-55
2022/06/04 06:51:55;;;;;;;9.27;4.30;;;23.30;99.90;;;;;;4994060;28;20084;-56
2022/06/04 06:54:23;;;;;;;5.03;4.30;;;23.10;99.90;;;;;;4992869;28;20027;-53
2022/06/04 06:56:50;;;;;;;6.00;4.22;;;22.60;99.90;;;;;;4993670;28;20018;-52
2022/06/04 06:59:19;;;;;;;4.75;3.67;;;22.50;99.90;;;;;;4992773;28;20019;-55
2022/06/04 07:01:44;;;;;;;5.20;3.55;;;22.60;99.90;;;;;;4994056;28;20026;-55
2022/06/04 07:04:10;;;;;;;4.10;3.75;;;22.70;99.90;;;;;;4994108;28;20193;-57
2022/06/04 07:06:42;;;;;;;6.03;3.60;;;22.90;99.90;;;;;;4992735;28;20120;-53
2022/06/04 07:09:14;;;;;;;3.97;3.67;;;23.00;99.90;;;;;;4993962;28;20551;-55
2022/06/04 07:11:40;;;;;;;5.15;3.00;;;23.20;99.90;;;;;;4993843;28;20030;-56
2022/06/04 07:14:06;;;;;;;4.88;3.85;;;23.50;99.90;;;;;;4993948;28;20109;-53
2022/06/04 07:16:31;;;;;;;5.25;3.47;;;23.60;99.90;;;;;;4992670;28;20018;-54
2022/06/04 07:18:57;;;;;;;3.42;3.13;;;23.50;99.90;;;;;;4996431;28;20019;-56
2022/06/04 07:21:23;;;;;;;4.38;3.50;;;23.90;99.90;;;;;;4996620;28;20121;-52
2022/06/04 07:23:49;;;;;;;4.93;4.20;;;24.20;99.90;;;;;;4996578;28;20034;-54
2022/06/04 07:26:15;;;;;;;7.47;4.20;;;24.20;99.90;;;;;;4997450;28;20034;-53
2022/06/04 07:28:41;;;;;;;4.45;3.58;;;24.00;99.90;;;;;;4998087;28;20032;-51
2022/06/04 07:31:09;;;;;;;5.57;3.90;;;24.40;99.90;;;;;;4996513;28;20026;-53
2022/06/04 07:33:34;;;;;;;3.15;2.95;;;24.50;99.90;;;;;;4997772;28;20054;-54
2022/06/04 07:36:01;;;;;;;4.15;3.22;;;24.80;99.90;;;;;;4997353;28;20053;-56
2022/06/04 07:38:26;;;;;;;5.47;3.40;;;25.20;99.90;;;;;;4996630;28;20018;-58
2022/06/04 07:40:52;;;;;;;6.13;3.72;;;25.30;99.90;;;;;;4996836;28;20388;-53
2022/06/04 07:43:18;;;;;;;4.60;3.33;;;25.20;99.90;;;;;;4996126;28;20035;-54
2022/06/04 07:45:44;;;;;;;4.00;3.45;;;25.00;99.90;;;;;;4997425;28;20030;-53
2022/06/04 07:48:10;;;;;;;3.45;3.00;;;25.20;99.90;;;;;;4980673;28;20038;-55
2022/06/04 07:50:39;;;;;;;3.78;2.95;;;25.30;99.90;;;;;;4977903;28;20034;-56
2022/06/04 07:53:06;;;;;;;4.15;3.50;;;25.50;99.90;;;;;;4977439;28;20077;-56
2022/06/04 07:55:32;;;;;;;3.30;3.00;;;25.40;99.90;;;;;;4992754;28;20092;-54
2022/06/04 07:57:57;;;;;;;8.20;3.55;;;25.40;99.90;;;;;;4997482;28;20018;-52
2022/06/04 08:00:24;;;;;;;4.78;3.03;;;25.50;99.90;;;;;;4997152;28;20018;-51
2022/06/04 08:02:51;;;;;;;4.05;3.10;;;25.50;99.90;;;;;;4995943;28;20047;-55
2022/06/04 08:05:17;;;;;;;4.95;2.90;;;25.50;99.90;;;;;;4997457;28;20077;-54
2022/06/04 08:07:42;;;;;;;5.30;3.03;;;25.60;99.90;;;;;;4997126;28;20034;-53
2022/06/04 08:10:10;;;;;;;3.38;2.97;;;25.70;99.90;;;;;;4995711;28;20027;-51
2022/06/04 08:12:40;;;;;;;5.13;3.17;;;25.90;99.90;;;;;;4995866;28;20061;-53
2022/06/04 08:15:07;;;;;;;3.40;2.97;;;25.90;99.90;;;;;;4995698;28;20022;-54
2022/06/04 08:17:33;;;;;;;5.60;3.30;;;25.70;99.90;;;;;;4996918;28;20579;-52
2022/06/04 08:19:58;;;;;;;4.53;3.42;;;25.30;99.90;;;;;;4995554;28;20109;-57
2022/06/04 08:22:24;;;;;;;6.88;3.55;;;25.20;99.90;;;;;;4995449;28;20027;-51
2022/06/04 08:24:50;;;;;;;3.15;2.85;;;25.20;99.90;;;;;;4996804;28;20026;-53
2022/06/04 08:27:16;;;;;;;6.00;4.00;;;25.40;99.90;;;;;;4996077;28;20054;-54
2022/06/04 08:29:42;;;;;;;3.35;3.10;;;25.80;99.90;;;;;;4994702;28;20022;-60
2022/06/04 08:32:08;;;;;;;7.72;2.80;;;26.20;99.90;;;;;;4995263;28;20085;-56
2022/06/04 08:35:05;;;;;;;6.45;3.20;;;26.60;99.90;;;;;;4995423;28;20029;-53
2022/06/04 08:37:30;;;;;;;2.85;2.65;;;27.10;99.90;;;;;;4996195;28;20054;-56
2022/06/04 08:39:57;;;;;;;8.88;3.80;;;28.10;99.90;;;;;;4982730;28;20026;-56
2022/06/04 08:42:40;;;;;;;4.07;2.83;;;28.40;99.90;;;;;;4975580;28;20023;-53
2022/06/04 08:45:10;;;;;;;6.22;3.50;;;28.40;99.90;;;;;;4976927;28;20572;-57
2022/06/04 08:47:49;;;;;;;4.20;2.92;;;29.10;99.90;;;;;;4977032;28;20022;-53
2022/06/04 08:50:21;;;;;;;4.30;3.00;;;29.60;99.90;;;;;;4975431;28;20093;-54
2022/06/04 08:52:54;;;;;;;3.72;2.60;;;29.10;99.90;;;;;;4975652;28;20034;-55
2022/06/04 08:58:12;;;;;;;6.13;3.15;;;28.90;99.90;;;;;;4977312;28;20082;-52
2022/06/04 09:01:16;;;;;;;4.05;3.00;;;27.90;99.90;;;;;;4976931;28;20031;-53
2022/06/04 09:04:27;;;;;;;8.90;3.25;;;27.10;99.90;;;;;;4975023;28;20129;-53
2022/06/04 09:07:00;;;;;;;4.18;3.05;;;26.70;99.90;;;;;;4994086;28;20022;-51
2022/06/04 09:09:56;;;;;;;4.70;3.13;;;26.40;99.90;;;;;;4996398;28;20033;-57
2022/06/04 09:12:40;;;;;;;3.63;3.05;;;26.80;99.90;;;;;;4994150;28;20054;-52
2022/06/04 09:15:29;;;;;;;3.33;3.03;;;27.20;99.90;;;;;;4995550;28;20050;-58
2022/06/04 09:17:57;;;;;;;4.95;3.08;;;27.50;99.90;;;;;;4994366;28;20022;-58
2022/06/04 09:20:43;;;;;;;3.40;3.10;;;27.60;99.90;;;;;;4990009;28;20027;-56
2022/06/04 09:23:35;;;;;;;4.15;3.00;;;27.80;99.90;;;;;;4981021;28;20050;-60
2022/06/04 09:26:15;;;;;;;6.05;3.30;;;28.10;99.90;;;;;;4995627;28;20058;-57
2022/06/04 09:29:03;;;;;;;3.50;2.92;;;28.10;99.90;;;;;;4994552;28;20027;-55
2022/06/04 09:31:50;;;;;;;6.35;3.50;;;27.70;99.90;;;;;;4990882;28;20038;-55
2022/06/04 09:34:35;;;;;;;3.38;2.95;;;27.80;99.90;;;;;;4995557;28;20033;-56
2022/06/04 09:37:04;;;;;;;3.60;3.30;;;26.60;99.90;;;;;;4995279;28;20034;-57
2022/06/04 09:39:33;;;;;;;4.22;3.20;;;25.90;99.90;;;;;;4994432;28;20029;-58
2022/06/04 09:42:02;;;;;;;5.38;3.13;;;26.20;99.90;;;;;;4993354;28;20037;-59
2022/06/04 09:44:30;;;;;;;3.60;3.30;;;26.40;99.90;;;;;;4994294;28;20030;-57
2022/06/04 09:47:19;;;;;;;4.05;3.25;;;26.80;99.90;;;;;;4994111;28;20110;-55
2022/06/04 09:50:00;;;;;;;5.82;2.45;;;26.70;99.90;;;;;;4994068;28;20377;-58
2022/06/04 09:52:38;;;;;;;8.20;3.85;;;27.20;99.90;;;;;;4994141;28;20031;-56
2022/06/04 09:55:42;;;;;;;6.18;2.80;;;26.90;99.90;;;;;;4995060;28;20022;-51
2022/06/04 09:58:27;;;;;;;6.97;3.60;;;26.60;99.90;;;;;;4993915;28;20026;-53
2022/06/04 10:01:01;;;;;;;5.97;3.08;;;26.60;99.90;;;;;;4993684;28;20035;-56
2022/06/04 10:03:29;;;;;;;3.60;3.30;;;27.00;99.90;;;;;;4993574;28;20508;-51
2022/06/04 10:06:03;;;;;;;4.45;2.80;;;27.10;99.90;;;;;;4994905;28;20022;-57
2022/06/04 10:11:57;;;;;;;5.20;3.20;;;27.30;99.90;;;;;;4995060;28;20106;-53
2022/06/04 10:14:31;;;;;;;6.93;2.92;;;26.70;99.90;;;;;;4991690;28;20112;-52
2022/06/04 10:16:58;;;;;;;3.63;3.33;;;26.60;99.90;;;;;;4993606;28;20018;-54
2022/06/04 10:19:27;;;;;;;4.22;3.25;;;26.50;99.90;;;;;;4993656;28;20054;-54
2022/06/04 10:22:13;;;;;;;5.82;3.88;;;26.60;99.90;;;;;;4994368;28;20034;-52
2022/06/04 10:25:28;;;;;;;9.13;3.40;;;26.60;99.90;;;;;;4993079;28;20108;-51
2022/06/04 10:28:23;;;;;;;4.82;3.63;;;26.60;99.90;;;;;;4993280;28;20042;-51
2022/06/04 10:31:04;;;;;;;4.50;3.97;;;25.90;99.90;;;;;;4973600;28;20069;-55
2022/06/04 10:33:48;;;;;;;4.13;2.97;;;25.80;99.90;;;;;;4975248;28;20147;-54
2022/06/04 10:36:46;;;;;;;4.40;3.42;;;26.00;99.90;;;;;;4994402;28;20058;-53
2022/06/04 10:39:21;;;;;;;7.30;4.22;;;25.80;99.90;;;;;;4994592;28;20025;-56
2022/06/04 10:41:56;;;;;;;6.78;5.28;;;26.00;99.90;;;;;;4993086;28;20033;-55
2022/06/04 10:44:31;;;;;;;8.27;3.65;;;26.20;99.90;;;;;;4993434;28;20038;-52
2022/06/04 10:47:15;;;;;;;3.85;3.15;;;26.30;99.90;;;;;;4993860;28;20027;-54
2022/06/04 10:50:05;;;;;;;8.07;3.35;;;26.40;99.90;;;;;;4993545;28;20085;-55
2022/06/04 10:52:39;;;;;;;4.68;3.15;;;26.40;99.90;;;;;;4994207;28;20037;-54
2022/06/04 10:55:15;;;;;;;6.93;3.47;;;26.20;99.90;;;;;;4994083;28;20109;-54
2022/06/04 10:57:52;;;;;;;4.43;3.30;;;26.10;99.90;;;;;;4994282;28;20069;-53
2022/06/04 11:00:25;;;;;;;3.55;3.25;;;26.00;99.90;;;;;;4992877;28;20096;-58
2022/06/04 11:03:04;;;;;;;6.38;3.72;;;26.00;99.90;;;;;;4988801;28;20027;-54
2022/06/04 11:05:43;;;;;;;3.65;3.35;;;26.20;99.90;;;;;;4973221;28;20022;-57
2022/06/04 11:08:20;;;;;;;3.50;3.00;;;26.40;99.90;;;;;;4973658;28;20022;-56
2022/06/04 11:10:52;;;;;;;3.83;3.50;;;26.40;99.90;;;;;;4974205;28;20493;-57
2022/06/04 11:13:25;;;;;;;3.83;3.17;;;26.30;99.90;;;;;;4974332;28;20033;-58
2022/06/04 11:16:22;;;;;;;5.82;3.38;;;26.40;99.90;;;;;;4973341;28;20019;-57
2022/06/04 11:18:58;;;;;;;7.55;4.10;;;26.40;99.90;;;;;;4976191;28;20112;-56
2022/06/04 11:21:47;;;;;;;8.18;3.40;;;25.90;99.90;;;;;;4974313;28;20121;-58
2022/06/04 11:24:19;;;;;;;4.43;3.30;;;26.00;99.90;;;;;;4972923;28;20027;-55
2022/06/04 11:26:50;;;;;;;4.32;2.83;;;26.40;99.90;;;;;;4974334;28;20031;-57
2022/06/04 11:29:16;;;;;;;;;;;26.50;99.90;;;;;;4992792;28;20034;-57
2022/06/04 11:32:11;;;;;;;3.72;2.58;;;26.70;99.90;;;;;;4991500;28;19914;-56
2022/06/04 11:35:05;;;;;;;3.70;3.30;;;26.90;99.90;;;;;;4993561;28;20014;-54
2022/06/04 11:37:46;;;;;;;4.70;2.88;;;26.90;99.90;;;;;;4992082;28;20058;-58
2022/06/04 11:40:24;;;;;;;3.38;2.83;;;27.00;99.90;;;;;;4993772;28;20026;-56
2022/06/04 11:43:11;;;;;;;5.32;3.58;;;27.10;99.90;;;;;;4991334;28;20034;-54
2022/06/04 11:46:00;;;;;;;3.53;3.22;;;26.50;99.90;;;;;;4993421;28;20026;-58
2022/06/04 11:48:50;;;;;;;3.85;3.22;;;26.50;99.90;;;;;;4993560;28;20023;-54
2022/06/04 11:51:37;;;;;;;3.17;2.92;;;26.80;99.90;;;;;;4993638;28;20030;-57
2022/06/04 11:54:11;;;;;;;4.90;3.30;;;26.30;99.90;;;;;;4992219;28;20027;-54
2022/06/04 11:57:12;;;;;;;3.30;2.80;;;25.80;99.90;;;;;;4993228;28;20074;-56
2022/06/04 11:59:53;;;;;;;4.40;3.28;;;25.30;99.90;;;;;;4989689;28;20022;-57
2022/06/04 12:02:26;;;;;;;3.28;2.97;;;25.20;99.90;;;;;;4992015;28;20069;-58
2022/06/04 12:05:23;;;;;;;4.00;3.47;;;25.30;99.90;;;;;;4995624;28;20080;-58
2022/06/04 12:08:12;;;;;;;3.90;3.35;;;25.30;99.90;;;;;;4995254;28;20034;-58
2022/06/04 12:10:57;;;;;;;4.60;3.47;;;25.20;99.90;;;;;;4995548;28;20073;-55
2022/06/04 12:13:38;;;;;;;3.53;3.22;;;25.30;99.90;;;;;;4995533;28;20015;-59
2022/06/04 12:16:09;;;;;;;;;;;25.60;99.90;;;;;;4996107;28;20023;-58
2022/06/04 12:18:42;;;;;;;4.13;3.28;;;25.70;99.90;;;;;;4995650;28;20423;-57
2022/06/04 12:24:20;;;;;;;3.38;3.08;;;25.20;99.90;;;;;;4996861;28;20037;-60
2022/06/04 12:26:48;;;;;;;4.45;2.90;;;25.30;99.90;;;;;;4996762;28;20054;-60
2022/06/04 12:32:36;;;;;;;4.93;3.25;;;25.30;99.90;;;;;;4996708;28;20044;-61
2022/06/04 12:35:05;;;;;;;4.10;3.80;;;25.40;99.90;;;;;;4995407;28;20030;-60
2022/06/04 12:37:44;;;;;;;4.75;3.83;;;25.50;99.90;;;;;;4977565;28;20027;-60
2022/06/04 12:40:28;;;;;;;4.05;3.30;;;25.50;99.90;;;;;;4975712;28;20401;-60
2022/06/04 12:46:28;;;;;;;4.53;4.00;;;25.20;99.90;;;;;;4977222;28;20035;-60
2022/06/04 12:48:59;;;;;;;5.50;3.70;;;25.20;99.90;;;;;;4975552;28;20118;-60
2022/06/04 12:51:49;;;;;;;3.65;3.17;;;25.30;99.90;;;;;;4976715;28;20082;-59
2022/06/04 12:54:41;;;;;;;3.97;3.55;;;25.30;99.90;;;;;;4976583;28;20058;-60
2022/06/04 12:57:41;;;;;;;3.72;3.45;;;25.30;99.90;;;;;;4976459;28;20029;-60
2022/06/04 13:00:17;;;;;;;4.30;3.85;;;25.40;99.90;;;;;;4975161;28;20029;-60
2022/06/04 13:03:15;;;;;;;4.10;3.60;;;25.40;99.90;;;;;;4984036;28;20018;-61
2022/06/04 13:06:04;;;;;;;5.90;3.22;;;25.30;99.90;;;;;;4994487;28;20030;-59
2022/06/04 13:08:42;;;;;;;4.40;3.45;;;25.40;99.90;;;;;;4995703;28;20027;-60
2022/06/04 13:11:52;;;;;;;4.35;3.95;;;25.60;99.90;;;;;;4994544;28;20027;-60
2022/06/04 13:14:36;;;;;;;3.45;3.15;;;25.50;99.90;;;;;;4994957;28;20022;-60
2022/06/04 13:20:46;;;;;;;4.55;3.38;;;25.40;99.90;;;;;;4995988;28;20030;-59
2022/06/04 13:23:41;;;;;;;3.50;3.20;;;25.50;99.90;;;;;;4995042;28;20030;-60
2022/06/04 13:26:19;;;;;;;4.53;3.90;;;25.50;99.90;;;;;;4994264;28;20030;-60
2022/06/04 13:28:46;;;;;;;4.30;3.25;;;25.60;99.90;;;;;;4994247;28;20030;-59
2022/06/04 13:31:29;;;;;;;3.47;3.17;;;25.70;99.90;;;;;;4994786;28;20108;-61
2022/06/04 13:33:56;;;;;;;4.40;3.22;;;25.90;99.90;;;;;;4995567;28;20024;-58
2022/06/04 13:36:28;;;;;;;4.18;3.33;;;26.00;99.90;;;;;;4994383;28;20049;-60
2022/06/04 13:38:56;;;;;;;3.05;2.83;;;26.10;99.90;;;;;;4979523;28;20027;-61
2022/06/04 13:44:22;;;;;;;3.15;2.90;;;26.00;99.90;;;;;;4995564;28;20461;-60
2022/06/04 13:50:15;;;;;;;3.70;2.88;;;26.00;99.90;;;;;;4995200;28;20108;-59
2022/06/04 13:52:40;;;;;;;;;;;26.10;99.90;;;;;;4995384;28;20015;-59
2022/06/04 13:55:14;;;;;;;3.10;2.70;;;26.20;99.90;;;;;;4991245;28;19906;-60
2022/06/04 13:57:48;;;;;;;7.93;2.83;;;26.30;99.90;;;;;;4989776;28;20045;-59